Time;durP1;ratioP1;P1;durP2;ratioP2;P2;SDS_P1;SDS_P2;PMS_P1;PMS_P2;Temp;Humidity;BMP_temperature;BMP_pressure;BME280_temperature;BME280_humidity;BME280_pressure;Samples;Min_cycle;Max_cycle;Signal;HPM_P1;HPM_P2
2022/08/12 00:43:16;;;;;;;4.90;4.13;;;18.60;99.90;;;;;;5030912;28;20437;-48
2022/08/12 00:48:26;;;;;;;5.03;4.60;;;18.40;99.90;;;;;;5029466;28;20437;-48
2022/08/12 00:50:55;;;;;;;4.93;4.20;;;18.30;99.90;;;;;;5030471;28;20522;-49
2022/08/12 00:53:22;;;;;;;5.20;4.70;;;18.20;99.90;;;;;;5034354;28;20505;-48
2022/08/12 00:55:52;;;;;;;5.37;4.87;;;18.00;99.90;;;;;;5034432;28;20874;-47
2022/08/12 00:58:24;;;;;;;4.67;4.27;;;17.90;99.90;;;;;;5034419;28;20445;-47
2022/08/12 01:00:52;;;;;;;4.80;4.50;;;18.00;99.90;;;;;;5034452;28;20504;-48
2022/08/12 01:03:20;;;;;;;5.90;4.30;;;18.30;99.90;;;;;;5034056;28;20481;-48
2022/08/12 01:11:30;;;;;;;4.57;4.17;;;17.90;99.90;;;;;;5034298;28;20462;-47
2022/08/12 01:14:03;;;;;;;5.00;4.50;;;17.60;99.90;;;;;;5033604;28;20480;-47
2022/08/12 01:16:31;;;;;;;5.40;4.90;;;17.40;99.90;;;;;;5033995;28;20451;-48
2022/08/12 01:18:59;;;;;;;5.53;5.03;;;17.60;99.90;;;;;;5033845;28;20497;-48
2022/08/12 01:21:56;;;;;;;4.43;3.73;;;18.10;99.90;;;;;;5033605;28;20450;-47
2022/08/12 01:24:47;;;;;;;4.63;4.33;;;18.30;99.90;;;;;;5033367;28;20959;-48
2022/08/12 01:27:15;;;;;;;4.90;4.50;;;18.30;99.90;;;;;;5033366;28;20450;-47
2022/08/12 01:29:43;;;;;;;4.93;4.50;;;17.70;99.90;;;;;;5033273;28;20446;-47
2022/08/12 01:32:14;;;;;;;4.70;4.27;;;17.80;99.90;;;;;;5033622;28;20528;-48
2022/08/12 01:34:50;;;;;;;5.20;4.30;;;18.10;99.90;;;;;;5033493;28;20470;-48
2022/08/12 01:37:19;;;;;;;4.70;4.30;;;17.80;99.90;;;;;;5033402;28;20434;-47
2022/08/12 01:39:51;;;;;;;4.83;4.40;;;17.40;99.90;;;;;;5033258;28;20920;-48
2022/08/12 01:42:21;;;;;;;4.80;4.30;;;17.20;99.90;;;;;;5033576;28;20912;-48
2022/08/12 01:44:52;;;;;;;5.90;4.10;;;17.40;99.90;;;;;;5033364;28;20487;-48
2022/08/12 01:47:32;;;;;;;5.73;5.20;;;17.60;99.90;;;;;;5033473;28;20454;-47
2022/08/12 01:50:16;;;;;;;4.70;4.30;;;17.80;99.90;;;;;;5033150;28;20446;-48
2022/08/12 01:52:55;;;;;;;5.70;4.73;;;17.90;99.90;;;;;;5032971;28;20480;-47
2022/08/12 01:55:25;;;;;;;5.20;4.20;;;18.10;99.90;;;;;;5033183;28;20525;-47
2022/08/12 01:58:02;;;;;;;5.33;4.83;;;18.30;99.90;;;;;;5033339;28;20485;-47
2022/08/12 02:00:47;;;;;;;6.23;4.70;;;18.10;99.90;;;;;;5033244;28;20445;-48
2022/08/12 02:12:14;;;;;;;4.80;4.50;;;17.80;99.90;;;;;;5033057;28;20474;-48
2022/08/12 02:14:51;;;;;;;6.33;5.40;;;18.20;99.90;;;;;;5032998;28;20451;-48
2022/08/12 02:17:38;;;;;;;7.23;5.17;;;18.50;99.90;;;;;;5032964;28;20489;-48
2022/08/12 02:20:12;;;;;;;5.43;4.93;;;18.70;99.90;;;;;;5029730;28;20540;-47
2022/08/12 02:22:43;;;;;;;4.60;4.20;;;18.60;99.90;;;;;;5032684;28;20466;-48
2022/08/12 02:25:15;;;;;;;5.57;4.80;;;18.90;99.90;;;;;;5032479;28;20466;-48
2022/08/12 02:27:46;;;;;;;5.03;4.60;;;19.00;99.90;;;;;;5032552;28;20461;-48
2022/08/12 02:30:16;;;;;;;4.50;4.13;;;18.80;99.90;;;;;;5032323;28;21001;-48
2022/08/12 02:32:45;;;;;;;4.27;3.97;;;18.60;99.90;;;;;;5032578;28;20548;-47
2022/08/12 02:35:15;;;;;;;4.90;3.80;;;17.90;99.90;;;;;;5032287;28;20431;-47
2022/08/12 02:37:44;;;;;;;5.40;4.90;;;17.60;99.90;;;;;;5032408;28;20509;-48
2022/08/12 02:40:14;;;;;;;4.53;4.10;;;17.40;99.90;;;;;;5032168;28;20438;-48
2022/08/12 02:42:52;;;;;;;5.27;4.77;;;17.50;99.90;;;;;;5032454;28;20480;-47
2022/08/12 02:45:25;;;;;;;4.60;4.20;;;17.80;99.90;;;;;;5032498;28;20445;-47
2022/08/12 02:47:55;;;;;;;5.73;5.00;;;17.60;99.90;;;;;;5032335;28;20529;-48
2022/08/12 02:50:26;;;;;;;5.60;5.10;;;17.50;99.90;;;;;;5032184;28;20476;-45
2022/08/12 02:52:55;;;;;;;4.97;4.47;;;17.00;99.90;;;;;;5031824;28;20483;-47
2022/08/12 02:55:29;;;;;;;5.17;4.67;;;16.30;99.90;;;;;;5032219;28;20449;-47
2022/08/12 02:57:59;;;;;;;4.70;4.13;;;16.80;99.90;;;;;;5032284;28;20461;-48
2022/08/12 03:00:27;;;;;;;4.93;4.43;;;17.10;99.90;;;;;;5032320;28;20518;-47
2022/08/12 03:03:00;;;;;;;5.37;4.97;;;17.20;99.90;;;;;;5031635;28;20481;-47
2022/08/12 03:05:28;;;;;;;5.67;4.80;;;17.30;99.90;;;;;;5031969;28;20500;-48
2022/08/12 03:08:00;;;;;;;5.30;4.80;;;17.70;99.90;;;;;;5031945;28;20464;-48
2022/08/12 03:10:32;;;;;;;4.77;4.37;;;18.10;99.90;;;;;;5031717;28;20453;-47
2022/08/12 03:13:02;;;;;;;4.80;4.40;;;17.90;99.90;;;;;;5031821;28;20470;-47
2022/08/12 03:15:31;;;;;;;5.60;5.10;;;17.90;99.90;;;;;;5031503;28;20981;-47
2022/08/12 03:18:03;;;;;;;5.57;4.90;;;17.80;99.90;;;;;;5031540;28;20470;-47
2022/08/12 03:20:33;;;;;;;5.47;4.90;;;17.90;99.90;;;;;;5031842;28;20799;-48
2022/08/12 03:23:03;;;;;;;5.97;5.43;;;17.80;99.90;;;;;;5031746;28;20458;-48
2022/08/12 03:25:37;;;;;;;10.33;5.53;;;17.70;99.90;;;;;;5031340;28;20450;-48
2022/08/12 03:28:09;;;;;;;4.97;4.57;;;17.50;99.90;;;;;;5031275;28;20457;-48
2022/08/12 03:30:37;;;;;;;5.77;5.20;;;17.60;99.90;;;;;;5031395;28;20450;-48
2022/08/12 03:33:05;;;;;;;5.47;4.90;;;17.70;99.90;;;;;;5031447;28;20478;-48
2022/08/12 03:35:35;;;;;;;5.33;4.83;;;18.00;99.90;;;;;;5031651;28;20446;-48
2022/08/12 03:38:05;;;;;;;5.13;4.37;;;18.10;99.90;;;;;;5031317;28;20512;-48
2022/08/12 04:00:20;;;;;;;5.70;4.47;;;18.30;99.90;;;;;;5031119;28;20472;-48
2022/08/12 04:02:57;;;;;;;5.07;4.67;;;18.50;99.90;;;;;;5101068;22;20495;-48
2022/08/12 04:05:25;;;;;;;5.80;5.30;;;18.10;99.90;;;;;;5071410;28;20445;-48
2022/08/12 04:07:53;;;;;;;6.07;5.47;;;17.70;99.90;;;;;;5071250;28;20991;-48
2022/08/12 04:10:20;;;;;;;5.97;5.37;;;17.40;99.90;;;;;;5070890;28;20513;-48
2022/08/12 04:15:44;;;;;;;5.00;4.57;;;17.10;99.90;;;;;;5071490;28;20436;-48
2022/08/12 04:18:12;;;;;;;5.33;4.83;;;16.90;99.90;;;;;;5070907;28;20445;-48
2022/08/12 04:20:41;;;;;;;7.13;5.37;;;17.30;99.90;;;;;;5070803;28;20487;-48
2022/08/12 04:23:11;;;;;;;5.23;4.73;;;17.10;99.90;;;;;;5070593;28;20529;-47
2022/08/12 04:25:39;;;;;;;4.83;4.43;;;17.50;99.90;;;;;;5070428;28;20463;-47
2022/08/12 04:28:07;;;;;;;6.07;4.63;;;17.40;99.90;;;;;;5074397;28;20449;-48
2022/08/12 04:30:35;;;;;;;5.43;4.80;;;17.50;99.90;;;;;;5074277;28;20432;-48
2022/08/12 04:33:08;;;;;;;4.90;4.40;;;17.50;99.90;;;;;;5074235;28;20483;-47
2022/08/12 04:35:36;;;;;;;5.80;5.30;;;16.70;99.90;;;;;;5074757;28;20437;-47
2022/08/12 04:38:04;;;;;;;4.70;4.30;;;16.90;99.90;;;;;;5074517;28;20945;-48
2022/08/12 04:40:35;;;;;;;6.30;5.00;;;17.30;99.90;;;;;;5074358;28;20482;-48
2022/08/12 04:43:02;;;;;;;5.87;5.37;;;17.40;99.90;;;;;;5074505;28;20484;-48
2022/08/12 04:45:29;;;;;;;6.07;5.47;;;17.40;99.90;;;;;;5074421;28;20453;-47
2022/08/12 04:47:56;;;;;;;7.80;5.57;;;16.80;99.90;;;;;;5074664;28;20448;-48
2022/08/12 04:50:26;;;;;;;6.10;5.60;;;16.90;99.90;;;;;;5074166;28;20984;-46
2022/08/12 04:52:53;;;;;;;6.40;5.90;;;17.00;99.90;;;;;;5074558;28;20965;-48
2022/08/12 04:55:21;;;;;;;6.30;5.80;;;16.40;99.90;;;;;;5074302;28;20468;-48
2022/08/12 04:57:48;;;;;;;6.00;5.50;;;16.50;99.90;;;;;;5074296;28;20765;-48
2022/08/12 05:00:16;;;;;;;5.10;4.70;;;16.40;99.90;;;;;;5073981;28;20537;-47
2022/08/12 05:02:43;;;;;;;6.50;5.90;;;16.60;99.90;;;;;;5073633;28;20992;-48
2022/08/12 05:05:19;;;;;;;5.30;4.80;;;16.90;99.90;;;;;;5074070;28;20449;-48
2022/08/12 05:07:47;;;;;;;5.87;5.20;;;17.10;99.90;;;;;;5073849;28;20435;-48
2022/08/12 05:10:15;;;;;;;7.50;6.47;;;17.40;99.90;;;;;;5073895;28;20449;-48
2022/08/12 05:12:46;;;;;;;7.70;6.40;;;17.00;99.90;;;;;;5073906;28;20560;-48
2022/08/12 05:15:13;;;;;;;6.47;5.97;;;17.30;99.90;;;;;;5073843;28;20472;-47
2022/08/12 05:17:41;;;;;;;6.93;6.40;;;17.30;99.90;;;;;;5073929;28;20941;-48
2022/08/12 05:20:10;;;;;;;7.33;6.33;;;17.40;99.90;;;;;;5073415;28;20802;-48
2022/08/12 05:22:38;;;;;;;7.70;6.70;;;17.30;99.90;;;;;;5073885;28;20480;-48
2022/08/12 05:25:07;;;;;;;8.57;7.23;;;17.10;99.90;;;;;;5073173;28;20437;-48
2022/08/12 05:27:34;;;;;;;6.43;5.50;;;17.10;99.90;;;;;;5073779;28;20498;-48
2022/08/12 05:30:01;;;;;;;7.90;5.30;;;17.50;99.90;;;;;;5073294;28;20448;-48
2022/08/12 05:32:28;;;;;;;7.23;5.50;;;17.60;99.90;;;;;;5073519;28;20529;-48
2022/08/12 05:34:55;;;;;;;6.43;5.83;;;17.40;99.90;;;;;;5073334;28;20476;-48
2022/08/12 05:37:22;;;;;;;5.87;4.90;;;17.60;99.90;;;;;;5072899;28;20913;-48
2022/08/12 05:39:49;;;;;;;5.93;5.40;;;17.80;99.90;;;;;;5072819;28;20448;-47
2022/08/12 05:42:18;;;;;;;6.03;5.47;;;18.00;99.90;;;;;;5073128;28;20781;-48
2022/08/12 05:44:45;;;;;;;8.20;5.47;;;18.00;99.90;;;;;;5073550;28;20437;-48
2022/08/12 05:47:13;;;;;;;5.40;5.00;;;18.20;99.90;;;;;;5073484;28;20433;-48
2022/08/12 05:49:40;;;;;;;6.40;5.87;;;18.00;99.90;;;;;;5073202;28;20955;-48
2022/08/12 05:52:08;;;;;;;5.70;5.20;;;17.80;99.90;;;;;;5073113;28;20448;-48
2022/08/12 05:54:40;;;;;;;6.23;5.73;;;17.60;99.90;;;;;;5072974;28;20464;-48
2022/08/12 05:57:07;;;;;;;7.70;7.00;;;17.90;99.90;;;;;;5072880;28;20429;-47
2022/08/12 05:59:37;;;;;;;6.73;5.80;;;18.00;99.90;;;;;;5073145;28;20452;-48
2022/08/12 06:02:06;;;;;;;7.63;6.40;;;18.00;99.90;;;;;;5072417;28;20436;-48
2022/08/12 06:04:33;;;;;;;8.47;6.90;;;18.00;99.90;;;;;;5072956;28;20989;-48
2022/08/12 06:07:01;;;;;;;7.13;6.43;;;18.00;99.90;;;;;;5073020;28;20448;-48
2022/08/12 06:09:29;;;;;;;7.73;7.10;;;18.00;99.90;;;;;;5072883;28;20516;-47
2022/08/12 06:11:56;;;;;;;7.50;6.70;;;17.40;99.90;;;;;;5072790;28;20432;-47
2022/08/12 06:14:23;;;;;;;8.47;7.57;;;17.50;99.90;;;;;;5072430;28;20503;-47
2022/08/12 06:16:52;;;;;;;9.03;8.10;;;17.50;99.90;;;;;;5072708;28;20456;-48
2022/08/12 06:19:19;;;;;;;8.30;7.40;;;17.70;99.90;;;;;;5072560;28;20449;-47
2022/08/12 06:21:47;;;;;;;9.53;8.10;;;17.60;99.90;;;;;;5072709;28;20436;-48
2022/08/12 06:24:17;;;;;;;7.73;6.50;;;17.50;99.90;;;;;;5072042;28;20461;-48
2022/08/12 06:26:44;;;;;;;7.77;6.93;;;17.40;99.90;;;;;;5072442;28;20456;-48
2022/08/12 06:29:18;;;;;;;7.57;6.97;;;17.60;99.90;;;;;;5072390;28;20475;-48
2022/08/12 06:31:49;;;;;;;7.60;6.90;;;17.70;99.90;;;;;;5072835;28;20436;-48
2022/08/12 06:34:18;;;;;;;7.67;5.97;;;18.00;99.90;;;;;;5072099;28;20518;-48
2022/08/12 06:36:45;;;;;;;8.27;6.47;;;18.20;99.90;;;;;;5072479;28;20452;-47
2022/08/12 06:39:13;;;;;;;6.83;6.23;;;18.50;99.90;;;;;;5072078;28;20452;-48
2022/08/12 06:44:25;;;;;;;6.97;6.30;;;18.50;99.90;;;;;;5072226;28;20932;-48
2022/08/12 06:46:52;;;;;;;6.70;6.00;;;18.60;99.90;;;;;;5072000;28;20424;-48
2022/08/12 06:49:20;;;;;;;7.10;6.40;;;18.60;99.90;;;;;;5071491;28;20548;-48
2022/08/12 06:51:47;;;;;;;6.43;5.93;;;18.70;99.90;;;;;;5072041;28;20432;-49
2022/08/12 06:54:15;;;;;;;7.10;6.20;;;18.70;99.90;;;;;;5071640;28;20476;-48
2022/08/12 06:56:42;;;;;;;6.63;5.93;;;18.70;99.90;;;;;;5071879;28;20439;-48
2022/08/12 06:59:10;;;;;;;7.23;6.40;;;18.60;99.90;;;;;;5071749;28;20444;-48
2022/08/12 07:01:37;;;;;;;6.57;5.97;;;18.80;99.90;;;;;;5071710;28;20441;-48
2022/08/12 07:04:04;;;;;;;7.10;6.40;;;19.00;99.90;;;;;;5071870;28;20526;-49
2022/08/12 07:06:33;;;;;;;6.77;6.17;;;19.10;99.90;;;;;;5071888;28;20428;-48
2022/08/12 07:09:03;;;;;;;6.80;6.20;;;19.30;99.90;;;;;;5071738;28;20925;-47
2022/08/12 07:11:32;;;;;;;6.93;6.23;;;19.40;99.90;;;;;;5072061;28;20444;-48
2022/08/12 07:14:00;;;;;;;6.40;5.77;;;19.00;99.90;;;;;;5071549;28;20481;-48
2022/08/12 07:16:50;;;;;;;7.20;6.60;;;18.70;99.90;;;;;;5071917;28;20476;-48
2022/08/12 07:19:15;;;;;;;9.17;7.30;;;18.70;99.90;;;;;;5070895;28;20439;-48
2022/08/12 07:21:43;;;;;;;6.90;6.30;;;18.50;99.90;;;;;;5071458;28;20436;-48
2022/08/12 07:24:10;;;;;;;7.47;6.77;;;18.40;99.90;;;;;;5070990;28;20507;-48
2022/08/12 07:26:40;;;;;;;7.67;7.00;;;18.30;99.90;;;;;;5071556;28;20452;-48
2022/08/12 07:29:08;;;;;;;7.43;6.80;;;18.40;99.90;;;;;;5071010;28;20439;-48
2022/08/12 07:31:35;;;;;;;7.30;6.60;;;18.60;99.90;;;;;;5071348;28;20929;-48
2022/08/12 07:34:02;;;;;;;6.83;6.13;;;18.40;99.90;;;;;;5071116;28;20502;-48
2022/08/12 07:36:32;;;;;;;7.23;6.20;;;18.30;99.90;;;;;;5071404;28;20444;-48
2022/08/12 07:39:01;;;;;;;8.63;7.87;;;18.60;99.90;;;;;;5071040;28;20528;-48
2022/08/12 07:41:30;;;;;;;7.90;7.20;;;18.70;99.90;;;;;;5071313;28;20846;-48
2022/08/12 07:43:59;;;;;;;8.17;7.43;;;18.60;99.90;;;;;;5071159;28;20814;-48
2022/08/12 07:46:30;;;;;;;8.27;7.60;;;18.70;99.90;;;;;;5071368;28;20452;-46
2022/08/12 07:48:59;;;;;;;6.57;6.07;;;18.80;99.90;;;;;;5070970;28;20432;-48
2022/08/12 07:51:27;;;;;;;7.63;7.13;;;18.70;99.90;;;;;;5071625;28;20453;-48
2022/08/12 07:53:56;;;;;;;7.23;6.60;;;18.80;99.90;;;;;;5070834;28;20455;-48
2022/08/12 07:56:24;;;;;;;6.73;6.20;;;19.00;99.90;;;;;;5071532;28;20506;-48
2022/08/12 07:58:52;;;;;;;5.60;5.10;;;18.90;99.90;;;;;;5070730;28;20938;-48
2022/08/12 08:01:22;;;;;;;8.33;7.63;;;19.10;99.90;;;;;;5071616;28;20439;-48
2022/08/12 08:06:39;;;;;;;10.47;9.67;;;19.50;99.90;;;;;;5075103;28;20420;-48
2022/08/12 08:09:06;;;;;;;8.00;7.30;;;19.30;99.90;;;;;;5075246;28;20456;-48
2022/08/12 08:14:19;;;;;;;8.63;7.83;;;20.00;99.90;;;;;;5074950;28;20487;-48
2022/08/12 08:16:48;;;;;;;9.50;8.60;;;20.50;99.90;;;;;;5074991;28;20547;-48
2022/08/12 08:19:22;;;;;;;10.50;9.53;;;20.60;99.90;;;;;;5074802;28;20458;-48
2022/08/12 08:21:49;;;;;;;9.00;8.20;;;20.70;99.90;;;;;;5075028;28;20435;-48
2022/08/12 08:24:17;;;;;;;11.40;8.93;;;20.90;99.90;;;;;;5074932;28;20472;-48
2022/08/12 08:26:47;;;;;;;9.70;8.90;;;21.10;99.90;;;;;;5074928;28;20448;-48
2022/08/12 08:29:14;;;;;;;7.93;7.13;;;21.20;99.90;;;;;;5074583;28;20464;-48
2022/08/12 08:31:45;;;;;;;7.03;6.43;;;21.20;99.90;;;;;;5074486;28;21010;-48
2022/08/12 08:34:13;;;;;;;10.03;9.07;;;21.20;99.90;;;;;;5074725;28;20965;-48
2022/08/12 08:36:42;;;;;;;9.30;8.37;;;21.30;99.90;;;;;;5075021;28;20953;-48
2022/08/12 08:39:11;;;;;;;7.37;6.77;;;21.20;99.90;;;;;;5074392;28;20969;-48
2022/08/12 08:44:24;;;;;;;7.53;6.93;;;21.50;99.90;;;;;;5074715;28;20803;-48
2022/08/12 08:46:54;;;;;;;6.90;6.30;;;21.60;99.90;;;;;;5074637;28;20428;-48
2022/08/12 08:49:21;;;;;;;6.73;6.10;;;21.50;99.90;;;;;;5074307;28;20509;-48
2022/08/12 08:51:49;;;;;;;5.37;4.97;;;21.60;99.90;;;;;;5074247;28;21080;-48
2022/08/12 08:54:16;;;;;;;8.30;7.60;;;21.60;99.90;;;;;;5073950;28;20464;-48
2022/08/12 08:56:48;;;;;;;7.47;6.60;;;21.90;99.90;;;;;;5074312;28;20505;-48
2022/08/12 08:59:18;;;;;;;7.00;6.33;;;21.70;99.90;;;;;;5074127;28;20440;-49
2022/08/12 09:01:47;;;;;;;6.67;6.07;;;21.90;99.90;;;;;;5073894;28;20914;-48
2022/08/12 09:04:14;;;;;;;6.63;6.03;;;22.10;99.90;;;;;;5074388;28;20476;-49
2022/08/12 09:06:42;;;;;;;6.40;5.90;;;22.30;99.90;;;;;;5074124;28;20771;-48
2022/08/12 09:09:10;;;;;;;5.30;4.90;;;22.40;99.90;;;;;;5073708;28;20467;-48
2022/08/12 09:14:22;;;;;;;5.90;5.30;;;22.70;99.90;;;;;;5074029;28;20543;-48
2022/08/12 09:16:50;;;;;;;9.63;5.63;;;22.80;99.90;;;;;;5073861;28;20487;-48
2022/08/12 09:19:18;;;;;;;4.63;4.23;;;22.70;99.90;;;;;;5073907;28;20488;-48
2022/08/12 09:21:46;;;;;;;4.30;3.90;;;22.60;99.90;;;;;;5073874;28;20449;-50
2022/08/12 09:24:17;;;;;;;3.80;3.50;;;22.50;99.90;;;;;;5073523;28;21031;-49
2022/08/12 09:26:46;;;;;;;4.43;4.00;;;22.40;99.90;;;;;;5073837;28;20498;-48
2022/08/12 09:29:13;;;;;;;3.77;3.37;;;22.20;99.90;;;;;;5073384;28;20910;-48
2022/08/12 09:31:41;;;;;;;4.40;4.00;;;22.20;98.70;;;;;;5073346;28;20444;-48
2022/08/12 09:34:11;;;;;;;4.43;3.67;;;21.80;99.90;;;;;;5073398;28;20486;-48
2022/08/12 09:36:38;;;;;;;5.13;3.10;;;22.00;97.30;;;;;;5073217;28;20533;-48
2022/08/12 09:39:06;;;;;;;4.63;3.80;;;22.10;99.90;;;;;;5073664;28;20444;-47
2022/08/12 09:41:38;;;;;;;5.33;3.50;;;21.90;99.90;;;;;;5073277;28;20433;-47
2022/08/12 09:46:49;;;;;;;3.60;2.60;;;22.00;99.90;;;;;;5073934;28;20420;-47
2022/08/12 09:49:18;;;;;;;2.63;2.40;;;21.90;97.90;;;;;;5073016;28;20432;-47
2022/08/12 09:51:46;;;;;;;3.13;2.83;;;21.80;99.40;;;;;;5073287;28;20827;-47
2022/08/12 09:54:16;;;;;;;6.83;3.13;;;21.70;95.60;;;;;;5073160;28;20941;-47
2022/08/12 09:56:44;;;;;;;2.97;2.50;;;21.90;96.70;;;;;;5073042;28;20562;-46
2022/08/12 09:59:11;;;;;;;3.80;2.47;;;21.60;96.00;;;;;;5073093;28;20445;-46
2022/08/12 10:01:39;;;;;;;2.83;2.50;;;21.50;96.00;;;;;;5073031;28;20449;-47
2022/08/12 10:04:08;;;;;;;2.43;2.07;;;21.30;96.00;;;;;;5073952;28;20559;-47
2022/08/12 10:06:37;;;;;;;3.57;2.60;;;21.40;94.20;;;;;;5073052;28;20452;-47
2022/08/12 10:09:05;;;;;;;3.20;2.87;;;21.40;94.80;;;;;;5072437;28;20472;-47
2022/08/12 10:14:17;;;;;;;2.90;2.30;;;21.50;94.90;;;;;;5072276;28;20520;-47
2022/08/12 10:16:44;;;;;;;2.70;2.40;;;21.40;96.00;;;;;;5072000;28;20472;-49
2022/08/12 10:19:14;;;;;;;4.23;2.50;;;21.40;94.80;;;;;;5071660;28;20517;-47
2022/08/12 10:21:43;;;;;;;4.97;2.50;;;21.40;95.30;;;;;;5071867;28;20437;-47
2022/08/12 10:24:14;;;;;;;3.00;2.57;;;21.30;95.10;;;;;;5070173;28;20888;-48
2022/08/12 10:29:40;;;;;;;3.17;2.87;;;21.40;95.60;;;;;;5071624;28;20440;-47
2022/08/12 10:32:09;;;;;;;5.60;2.50;;;21.40;96.80;;;;;;5071518;28;20531;-48
2022/08/12 10:34:36;;;;;;;4.03;3.20;;;21.40;96.20;;;;;;5072481;28;20487;-47
2022/08/12 10:37:05;;;;;;;3.30;3.00;;;21.50;96.90;;;;;;5069458;28;20445;-47
2022/08/12 10:39:36;;;;;;;2.63;2.43;;;21.50;93.90;;;;;;5071671;28;20437;-47
2022/08/12 10:44:50;;;;;;;3.13;2.83;;;21.40;94.60;;;;;;5070191;28;20907;-47
2022/08/12 10:47:19;;;;;;;3.30;2.70;;;21.40;95.00;;;;;;5072073;28;20841;-47
2022/08/12 10:49:47;;;;;;;2.60;2.40;;;21.50;95.70;;;;;;5068986;28;20425;-47
2022/08/12 10:52:17;;;;;;;4.20;2.60;;;21.60;95.60;;;;;;5071760;28;20441;-47
2022/08/12 10:54:49;;;;;;;2.37;2.00;;;21.60;95.70;;;;;;5071338;28;20969;-47
2022/08/12 10:57:17;;;;;;;3.93;2.53;;;21.70;93.80;;;;;;5071878;28;20440;-47
2022/08/12 10:59:44;;;;;;;2.50;2.27;;;21.70;96.80;;;;;;5071855;28;20468;-47
2022/08/12 11:02:12;;;;;;;2.70;2.50;;;21.80;95.40;;;;;;5071455;28;20456;-47
2022/08/12 11:04:40;;;;;;;3.70;2.70;;;21.70;93.90;;;;;;5071907;28;20444;-47
2022/08/12 11:07:09;;;;;;;2.60;2.30;;;21.60;95.90;;;;;;5071507;28;20448;-47
2022/08/12 11:09:37;;;;;;;3.07;2.50;;;21.60;94.90;;;;;;5071409;28;20428;-47
2022/08/12 11:12:06;;;;;;;2.83;2.50;;;21.60;95.20;;;;;;5070865;28;20453;-47
2022/08/12 11:14:34;;;;;;;2.50;2.30;;;21.70;95.40;;;;;;5071314;28;20448;-47
2022/08/12 11:17:05;;;;;;;2.50;2.30;;;21.80;97.70;;;;;;5071398;28;20482;-47
2022/08/12 11:19:34;;;;;;;3.20;2.33;;;21.90;95.70;;;;;;5071088;28;20433;-47
2022/08/12 11:22:01;;;;;;;2.70;2.33;;;21.90;94.20;;;;;;5071082;28;20498;-47
2022/08/12 11:24:29;;;;;;;2.60;2.40;;;22.00;93.60;;;;;;5071130;28;20456;-48
2022/08/12 11:26:58;;;;;;;3.10;2.57;;;22.10;93.40;;;;;;5071644;28;20444;-47
2022/08/12 11:29:27;;;;;;;2.80;2.50;;;22.10;93.20;;;;;;5071248;28;20445;-47
2022/08/12 11:31:54;;;;;;;2.90;2.20;;;22.40;96.40;;;;;;5071455;28;20448;-47
2022/08/12 11:34:22;;;;;;;2.90;2.63;;;22.60;94.60;;;;;;5071233;28;20444;-47
2022/08/12 11:36:53;;;;;;;2.40;2.20;;;22.60;96.90;;;;;;5070533;28;20503;-47
2022/08/12 11:39:21;;;;;;;6.20;2.40;;;22.80;97.00;;;;;;5071436;28;20522;-48
2022/08/12 11:41:48;;;;;;;2.23;2.00;;;23.00;95.70;;;;;;5071297;28;20913;-48
2022/08/12 11:44:17;;;;;;;6.00;2.43;;;23.30;95.60;;;;;;5071121;28;20464;-48
2022/08/12 11:46:45;;;;;;;4.13;2.37;;;23.40;95.90;;;;;;5071027;28;20520;-47
2022/08/12 11:49:12;;;;;;;3.50;2.67;;;23.70;92.00;;;;;;5071154;28;20956;-47
2022/08/12 11:51:39;;;;;;;2.57;2.37;;;23.60;92.30;;;;;;5071451;28;20494;-47
2022/08/12 11:54:07;;;;;;;2.77;2.30;;;23.50;94.60;;;;;;5071173;28;20453;-47
2022/08/12 11:56:35;;;;;;;2.30;2.10;;;23.70;94.60;;;;;;5071281;28;20464;-47
2022/08/12 11:59:02;;;;;;;3.43;2.43;;;23.80;92.40;;;;;;5070985;28;20521;-47
2022/08/12 12:01:30;;;;;;;2.97;2.33;;;23.80;91.90;;;;;;5070869;28;20999;-48
2022/08/12 12:03:57;;;;;;;3.60;2.87;;;23.70;91.50;;;;;;5071210;28;20555;-47
2022/08/12 12:06:24;;;;;;;4.90;2.67;;;23.80;90.80;;;;;;5070837;28;20439;-47
2022/08/12 12:08:52;;;;;;;5.60;2.13;;;23.50;90.90;;;;;;5071036;28;20468;-48
2022/08/12 12:11:19;;;;;;;3.47;2.10;;;23.40;87.90;;;;;;5071295;28;20521;-47
2022/08/12 12:13:47;;;;;;;2.10;1.90;;;23.80;90.30;;;;;;5071001;28;20464;-47
2022/08/12 12:16:14;;;;;;;2.20;1.80;;;23.80;86.20;;;;;;5070858;28;21051;-47
2022/08/12 12:18:42;;;;;;;2.23;1.83;;;23.70;92.10;;;;;;5070539;28;20794;-46
2022/08/12 12:21:09;;;;;;;2.40;2.20;;;23.60;84.90;;;;;;5071010;28;20556;-47
2022/08/12 12:23:37;;;;;;;2.30;1.83;;;23.80;88.40;;;;;;5070999;28;20490;-44
2022/08/12 12:26:05;;;;;;;5.50;2.40;;;23.80;87.60;;;;;;5071172;28;20501;-47
2022/08/12 12:28:32;;;;;;;2.60;2.40;;;23.90;90.80;;;;;;5071054;28;20480;-47
2022/08/12 12:30:59;;;;;;;3.00;2.43;;;23.70;87.60;;;;;;5070816;28;20936;-47
2022/08/12 12:33:26;;;;;;;2.50;2.03;;;23.80;90.30;;;;;;5070736;28;20828;-47
2022/08/12 12:35:55;;;;;;;2.50;2.27;;;23.90;91.00;;;;;;5070700;28;20468;-47
2022/08/12 12:38:22;;;;;;;2.63;2.00;;;23.90;90.40;;;;;;5070680;28;20937;-47
2022/08/12 12:40:49;;;;;;;2.47;2.13;;;23.90;88.70;;;;;;5070625;28;20527;-48
2022/08/12 12:43:17;;;;;;;3.07;1.93;;;24.00;91.00;;;;;;5070951;28;20448;-47
2022/08/12 12:45:45;;;;;;;2.30;1.90;;;24.00;90.00;;;;;;5070564;28;20436;-47
2022/08/12 12:48:14;;;;;;;2.53;1.93;;;24.20;90.90;;;;;;5072874;28;20425;-47
2022/08/12 12:50:43;;;;;;;3.67;2.33;;;24.00;89.00;;;;;;5074296;28;20983;-47
2022/08/12 12:53:14;;;;;;;6.07;2.07;;;24.00;88.20;;;;;;5074429;28;20472;-47
2022/08/12 12:55:41;;;;;;;2.00;1.60;;;24.10;87.30;;;;;;5074448;28;20821;-47
2022/08/12 12:58:13;;;;;;;3.73;2.00;;;23.90;89.80;;;;;;5074168;28;20436;-48
2022/08/12 13:00:43;;;;;;;2.00;1.80;;;23.80;86.20;;;;;;5073782;28;20432;-47
2022/08/12 13:03:11;;;;;;;2.13;1.50;;;23.70;86.30;;;;;;5073837;28;20467;-48
2022/08/12 13:05:41;;;;;;;3.17;1.87;;;23.80;83.40;;;;;;5074199;28;20494;-47
2022/08/12 13:08:23;;;;;;;2.00;1.70;;;23.90;84.70;;;;;;5073994;28;20432;-47
2022/08/12 13:10:50;;;;;;;2.67;2.10;;;23.70;88.20;;;;;;5073750;28;20433;-47
2022/08/12 13:13:18;;;;;;;2.10;1.60;;;23.80;86.60;;;;;;5073879;28;20472;-47
2022/08/12 13:15:47;;;;;;;2.43;2.20;;;24.00;80.10;;;;;;5073920;28;20482;-47
2022/08/12 13:18:16;;;;;;;2.00;1.53;;;23.90;88.40;;;;;;5073864;28;20502;-47
2022/08/12 13:20:44;;;;;;;2.70;1.80;;;23.70;83.80;;;;;;5073544;28;20443;-48
2022/08/12 13:23:15;;;;;;;1.93;1.70;;;23.50;87.40;;;;;;5073777;28;20472;-47
2022/08/12 13:25:43;;;;;;;4.17;1.90;;;23.50;88.70;;;;;;5073789;28;20468;-47
2022/08/12 13:28:20;;;;;;;2.67;2.07;;;23.70;90.90;;;;;;5073986;28;20456;-48
2022/08/12 13:30:48;;;;;;;1.87;1.70;;;23.90;89.40;;;;;;5073536;28;20432;-47
2022/08/12 13:33:16;;;;;;;2.90;2.33;;;23.90;89.00;;;;;;5073604;28;20907;-47
2022/08/12 13:35:44;;;;;;;2.90;2.03;;;23.90;90.20;;;;;;5073460;28;20439;-47
2022/08/12 13:38:11;;;;;;;2.10;1.70;;;24.00;87.40;;;;;;5073487;28;20429;-47
2022/08/12 13:40:39;;;;;;;3.80;2.10;;;23.70;85.00;;;;;;5073312;28;20432;-47
2022/08/12 13:43:14;;;;;;;2.90;2.10;;;23.80;91.30;;;;;;5073403;28;20543;-47
2022/08/12 13:45:41;;;;;;;2.60;2.40;;;23.90;87.30;;;;;;5073350;28;20460;-48
2022/08/12 13:48:08;;;;;;;1.97;1.63;;;23.90;86.40;;;;;;5073375;28;20440;-47
2022/08/12 13:50:38;;;;;;;2.87;2.00;;;23.70;87.40;;;;;;5073303;28;20432;-47
2022/08/12 13:53:08;;;;;;;3.73;2.40;;;23.70;89.10;;;;;;5072767;28;20479;-47
2022/08/12 13:55:36;;;;;;;2.17;1.97;;;23.80;91.40;;;;;;5073205;28;20960;-45
2022/08/12 13:58:05;;;;;;;3.30;2.00;;;23.60;87.60;;;;;;5072866;28;20530;-47
2022/08/12 14:00:35;;;;;;;2.60;2.07;;;23.80;91.20;;;;;;5071686;28;20866;-47
2022/08/12 14:03:03;;;;;;;4.27;1.80;;;23.70;90.50;;;;;;5072459;28;20538;-47
2022/08/12 14:05:32;;;;;;;2.70;1.93;;;23.90;90.40;;;;;;5073427;28;20449;-47
2022/08/12 14:08:01;;;;;;;2.30;2.10;;;23.90;89.20;;;;;;5072970;28;20441;-47
2022/08/12 14:10:36;;;;;;;2.10;1.80;;;23.80;89.60;;;;;;5072794;28;20834;-48
2022/08/12 14:13:05;;;;;;;4.50;1.87;;;23.70;88.20;;;;;;5072773;28;20467;-47
2022/08/12 14:15:33;;;;;;;3.27;2.30;;;23.60;86.70;;;;;;5072815;28;20541;-47
2022/08/12 14:18:08;;;;;;;2.10;1.60;;;23.50;88.80;;;;;;5072227;28;20538;-47
2022/08/12 14:20:35;;;;;;;3.10;2.00;;;23.30;87.00;;;;;;5072376;28;20432;-47
2022/08/12 14:23:02;;;;;;;4.23;1.77;;;23.40;87.70;;;;;;5072657;28;20542;-47
2022/08/12 14:25:29;;;;;;;3.47;2.60;;;23.30;90.00;;;;;;5072381;28;20436;-47
2022/08/12 14:28:10;;;;;;;2.63;1.83;;;23.00;89.00;;;;;;5072529;28;20449;-47
2022/08/12 14:30:43;;;;;;;2.20;1.77;;;22.90;89.00;;;;;;5072273;28;20515;-47
2022/08/12 14:33:10;;;;;;;2.97;2.20;;;22.90;89.10;;;;;;5072305;28;20560;-47
2022/08/12 14:35:37;;;;;;;2.67;2.17;;;22.80;90.40;;;;;;5072269;28;20480;-46
2022/08/12 14:38:14;;;;;;;2.37;1.97;;;22.70;90.00;;;;;;5072025;28;20908;-47
2022/08/12 14:40:42;;;;;;;2.70;2.40;;;22.80;90.50;;;;;;5072171;28;20775;-46
2022/08/12 14:43:12;;;;;;;4.00;2.10;;;22.70;90.10;;;;;;5072210;28;20595;-46